ポンタ・デルガダ の空港の天気 - METARとTAF

ポンタ・デルガダ空港 ( LPPD / PDL ) - ポルトガル ポンタ・デルガダ (サンミゲル島)
飛行場実況気象(Metar)
観測時間09/25 00:00 AZOST (09/25 00:00 UTC)
風向・風速東南東 4m/s
視程10km以上
天気現象
全天の4割程度の雲 雲底高度 490m
気温20℃
湿度83%
気圧1018hPa
METARLPPD 250000Z 12007KT 9999 SCT016 20/17 Q1018
過去の天気等 Google飛行場航空写真 Wunderground天気予報

過去48時間のMETAR

飛行場予報(TAF)
発表時間: 9/24 23:00 AZOST (9/24 23:00 UTC)
予報対象時間: 25日0時 AZOST ~ 26日0時 AZOST
風向・風速南東 4m/s
視程10km以上
全天の4割程度の雲 雲底高度 610m
25日0時 AZOST ~ 25日12時 AZOST に一時的に
少しの雲 雲底高度 610m
全天の8割程度の雲 雲底高度 1070m
25日6時 AZOST ~ 25日9時 AZOST に徐々に
風向・風速南 5m/s
25日12時 AZOST ~ 25日15時 AZOST に徐々に
風向・風速南南西 8m/s
全天の4割程度の雲 雲底高度 300m
全天の8割程度の雲 雲底高度 550m
25日15時 AZOST ~ 25日24時 AZOST に一時的に
視程3000m
天気現象雨霧雨 もや
全天の4割程度の雲 雲底高度 120m
全天の8割程度の雲 雲底高度 240m
少しの積乱雲 雲底高度 460m
TAF LPPD 242300Z 2500/2524 13008KT 9999 SCT020
TEMPO 2500/2512 FEW020 BKN035
BECMG 2506/2509 18010KT
BECMG 2512/2515 21015KT SCT010 BKN018
TEMPO 2515/2524 3000 RADZ BR SCT004 BKN008 FEW015CB